createdAt,value
2023-12-23T00:00:07.349Z,27.31
2023-12-23T00:01:07.353Z,27.34
2023-12-23T00:02:07.355Z,27.34
2023-12-23T00:03:07.376Z,27.22
2023-12-23T00:04:07.332Z,27.31
2023-12-23T00:05:07.510Z,27.31
2023-12-23T00:06:07.447Z,27.27
2023-12-23T00:07:07.331Z,27.32
2023-12-23T00:08:07.361Z,27.34
2023-12-23T00:09:07.326Z,27.34
2023-12-23T00:10:07.386Z,27.32
2023-12-23T00:11:07.471Z,27.31
2023-12-23T00:12:07.447Z,27.31
2023-12-23T00:13:07.341Z,27.34
2023-12-23T00:14:07.421Z,27.31
2023-12-23T00:15:07.337Z,27.32
2023-12-23T00:16:07.377Z,27.34
2023-12-23T00:17:07.455Z,27.37
2023-12-23T00:18:07.468Z,27.40
2023-12-23T00:19:07.627Z,27.27
2023-12-23T00:20:07.531Z,27.34
2023-12-23T00:21:07.467Z,27.32
2023-12-23T00:22:07.378Z,27.32
2023-12-23T00:23:07.379Z,27.37
2023-12-23T00:24:07.366Z,27.34
2023-12-23T00:25:07.356Z,27.37
2023-12-23T00:26:07.398Z,27.31
2023-12-23T00:27:07.356Z,27.36
2023-12-23T00:28:07.378Z,27.36
2023-12-23T00:29:07.376Z,27.37
2023-12-23T00:30:07.433Z,27.36
2023-12-23T00:31:07.371Z,27.40
2023-12-23T00:32:07.467Z,27.32
2023-12-23T00:33:07.471Z,27.37
2023-12-23T00:34:07.386Z,27.36
2023-12-23T00:35:07.416Z,27.34
2023-12-23T00:36:07.383Z,27.39
2023-12-23T00:37:07.397Z,27.36
2023-12-23T00:38:07.429Z,27.27
2023-12-23T00:39:07.375Z,27.32
2023-12-23T00:40:07.392Z,27.29
2023-12-23T00:41:07.404Z,27.36
2023-12-23T00:42:07.399Z,27.31
2023-12-23T00:43:07.401Z,27.25
2023-12-23T00:44:07.447Z,27.25
2023-12-23T00:45:07.408Z,27.32
2023-12-23T00:46:07.401Z,27.29
2023-12-23T00:47:07.440Z,27.29
2023-12-23T00:48:07.516Z,27.32
2023-12-23T00:49:07.489Z,27.36
2023-12-23T00:50:07.437Z,27.32
2023-12-23T00:51:07.410Z,27.29
2023-12-23T00:52:07.410Z,27.37
2023-12-23T00:53:07.430Z,27.36
2023-12-23T00:54:07.419Z,27.36
2023-12-23T00:55:07.407Z,27.41
2023-12-23T00:56:07.482Z,27.34
2023-12-23T00:57:07.406Z,27.32
2023-12-23T00:58:07.419Z,27.32
2023-12-23T00:59:07.467Z,27.37
2023-12-23T01:00:07.420Z,27.28
2023-12-23T01:01:07.483Z,27.32
2023-12-23T01:02:07.484Z,27.34
2023-12-23T01:03:07.417Z,27.28
2023-12-23T01:04:07.534Z,27.41
2023-12-23T01:05:07.467Z,27.31
2023-12-23T01:06:07.573Z,27.32
2023-12-23T01:07:07.446Z,27.37
2023-12-23T01:08:07.456Z,27.34
2023-12-23T01:09:07.425Z,27.36
2023-12-23T01:10:07.473Z,27.34
2023-12-23T01:11:07.460Z,27.36
2023-12-23T01:12:07.449Z,27.29
2023-12-23T01:13:07.437Z,27.36
2023-12-23T01:14:07.490Z,27.31
2023-12-23T01:15:07.436Z,27.32
2023-12-23T01:16:07.456Z,27.36
2023-12-23T01:17:07.483Z,27.36
2023-12-23T01:18:07.608Z,27.29
2023-12-23T01:19:07.509Z,27.34
2023-12-23T01:20:07.532Z,27.36
2023-12-23T01:21:07.457Z,27.32
2023-12-23T01:22:07.470Z,27.31
2023-12-23T01:23:07.474Z,27.28
2023-12-23T01:24:07.467Z,27.32
2023-12-23T01:25:07.457Z,27.36
2023-12-23T01:26:07.501Z,27.36
2023-12-23T01:27:07.476Z,27.34
2023-12-23T01:28:07.484Z,27.36
2023-12-23T01:29:07.531Z,27.31
2023-12-23T01:30:07.542Z,27.34
2023-12-23T01:31:07.464Z,27.29
2023-12-23T01:32:07.502Z,27.36
2023-12-23T01:33:07.563Z,27.34
2023-12-23T01:34:07.485Z,27.34
2023-12-23T01:35:07.530Z,27.36
2023-12-23T01:36:07.506Z,27.32
2023-12-23T01:37:07.471Z,27.34
2023-12-23T01:38:08.714Z,27.34
2023-12-23T01:39:07.488Z,27.36
2023-12-23T01:40:07.489Z,27.31
2023-12-23T01:41:07.544Z,27.34
2023-12-23T01:42:07.493Z,27.34
2023-12-23T01:43:07.482Z,27.37
2023-12-23T01:44:07.518Z,27.32
2023-12-23T01:45:07.486Z,27.31
2023-12-23T01:46:07.512Z,27.32
2023-12-23T01:47:07.564Z,27.32
2023-12-23T01:48:07.558Z,27.34
2023-12-23T01:49:07.504Z,27.32
2023-12-23T01:50:07.570Z,27.36
2023-12-23T01:51:07.495Z,27.28
2023-12-23T01:52:07.532Z,27.29
2023-12-23T01:53:07.521Z,27.31
2023-12-23T01:54:07.510Z,27.31
2023-12-23T01:55:07.500Z,27.34
2023-12-23T01:56:07.556Z,27.34
2023-12-23T01:57:07.507Z,27.36
2023-12-23T01:58:07.537Z,27.29
2023-12-23T01:59:07.561Z,27.28
2023-12-23T02:00:07.521Z,27.36
2023-12-23T02:01:07.580Z,27.27
2023-12-23T02:02:07.584Z,27.32
2023-12-23T02:03:07.633Z,27.29
2023-12-23T02:04:07.545Z,27.34
2023-12-23T02:05:07.885Z,27.32
2023-12-23T02:06:07.636Z,27.34
2023-12-23T02:07:07.521Z,27.34
2023-12-23T02:08:07.598Z,27.27
2023-12-23T02:09:07.536Z,27.31
2023-12-23T02:10:07.544Z,27.32
2023-12-23T02:11:07.819Z,27.34
2023-12-23T02:12:07.550Z,27.32
2023-12-23T02:13:12.768Z,27.31
2023-12-23T02:14:07.581Z,27.32
2023-12-23T02:15:07.552Z,27.32
2023-12-23T02:16:07.555Z,27.32
2023-12-23T02:17:07.565Z,27.32
2023-12-23T02:18:07.639Z,27.32
2023-12-23T02:19:07.646Z,27.29
2023-12-23T02:20:07.614Z,27.22
2023-12-23T02:21:07.545Z,27.29
2023-12-23T02:22:07.573Z,27.32
2023-12-23T02:23:07.574Z,27.29
2023-12-23T02:24:07.602Z,27.31
2023-12-23T02:25:07.559Z,27.36
2023-12-23T02:26:07.591Z,27.28
2023-12-23T02:27:07.555Z,27.34
2023-12-23T02:28:07.589Z,27.31
2023-12-23T02:29:07.633Z,27.32
2023-12-23T02:30:07.595Z,27.25
2023-12-23T02:31:07.643Z,27.32
2023-12-23T02:32:07.637Z,27.37
2023-12-23T02:33:07.673Z,27.32
2023-12-23T02:34:07.621Z,27.32
2023-12-23T02:35:07.609Z,27.36
2023-12-23T02:36:07.581Z,27.32
2023-12-23T02:37:07.588Z,27.32
2023-12-23T02:38:07.668Z,27.34
2023-12-23T02:39:07.600Z,27.29
2023-12-23T02:40:07.621Z,27.25
2023-12-23T02:41:07.631Z,27.29
2023-12-23T02:42:07.596Z,27.28
2023-12-23T02:43:07.583Z,27.32
2023-12-23T02:44:07.612Z,27.36
2023-12-23T02:45:07.606Z,27.28
2023-12-23T02:46:07.598Z,27.32
2023-12-23T02:47:07.606Z,27.32
2023-12-23T02:48:07.931Z,27.28
2023-12-23T02:49:07.653Z,27.22
2023-12-23T02:50:07.673Z,27.32
2023-12-23T02:51:07.602Z,27.24
2023-12-23T02:52:07.641Z,27.28
2023-12-23T02:53:07.648Z,27.34
2023-12-23T02:54:07.858Z,27.36
2023-12-23T02:55:07.597Z,27.36
2023-12-23T02:56:07.753Z,27.36
2023-12-23T02:57:07.598Z,27.36
2023-12-23T02:58:07.613Z,27.31
2023-12-23T02:59:07.651Z,27.27
2023-12-23T03:00:07.619Z,27.36
2023-12-23T03:01:07.641Z,27.32
2023-12-23T03:02:07.629Z,27.29
2023-12-23T03:03:07.670Z,27.34
2023-12-23T03:04:07.629Z,27.31
2023-12-23T03:05:07.720Z,27.36
2023-12-23T03:06:07.698Z,27.31
2023-12-23T03:07:07.614Z,27.32
2023-12-23T03:08:07.653Z,27.24
2023-12-23T03:09:07.620Z,27.36
2023-12-23T03:10:07.632Z,27.18
2023-12-23T03:11:07.667Z,27.32
2023-12-23T03:12:07.663Z,27.29
2023-12-23T03:13:07.626Z,27.22
2023-12-23T03:14:07.724Z,27.28
2023-12-23T03:15:07.710Z,27.22
2023-12-23T03:16:07.643Z,27.29
2023-12-23T03:17:07.676Z,27.19
2023-12-23T03:18:07.737Z,27.29
2023-12-23T03:19:07.724Z,27.27
2023-12-23T03:20:07.797Z,27.32
2023-12-23T03:21:07.641Z,27.27
2023-12-23T03:22:07.656Z,27.32
2023-12-23T03:23:07.674Z,27.29
2023-12-23T03:24:07.657Z,27.36
2023-12-23T03:25:07.645Z,27.31
2023-12-23T03:26:07.674Z,27.27
2023-12-23T03:27:07.649Z,27.19
2023-12-23T03:28:07.690Z,27.22
2023-12-23T03:29:07.648Z,27.34
2023-12-23T03:30:07.846Z,27.32
2023-12-23T03:31:07.654Z,27.27
2023-12-23T03:32:07.738Z,27.32
2023-12-23T03:33:07.736Z,27.32
2023-12-23T03:34:07.721Z,27.36
2023-12-23T03:35:07.717Z,27.29
2023-12-23T03:36:07.682Z,27.29
2023-12-23T03:37:07.662Z,27.32
2023-12-23T03:38:07.764Z,27.29
2023-12-23T03:39:07.672Z,27.22
2023-12-23T03:40:07.682Z,27.24
2023-12-23T03:41:07.734Z,27.29
2023-12-23T03:42:07.687Z,27.19
2023-12-23T03:43:07.671Z,27.25
2023-12-23T03:44:07.784Z,27.25
2023-12-23T03:45:07.682Z,27.36
2023-12-23T03:46:07.689Z,27.25
2023-12-23T03:47:07.700Z,27.19
2023-12-23T03:48:07.759Z,27.28
2023-12-23T03:49:07.689Z,27.25
2023-12-23T03:50:07.774Z,27.27
2023-12-23T03:51:07.685Z,27.25
2023-12-23T03:52:07.709Z,27.19
2023-12-23T03:53:07.712Z,27.22
2023-12-23T03:54:07.707Z,27.28
2023-12-23T03:55:07.706Z,27.36
2023-12-23T03:56:07.708Z,27.24
2023-12-23T03:57:07.716Z,27.29
2023-12-23T03:58:07.728Z,27.25
2023-12-23T03:59:07.807Z,27.24
2023-12-23T04:00:07.747Z,27.22
2023-12-23T04:01:07.760Z,27.21
2023-12-23T04:02:07.732Z,27.21
2023-12-23T04:03:07.724Z,27.21
2023-12-23T04:04:07.721Z,27.25
2023-12-23T04:05:07.793Z,27.21
2023-12-23T04:06:07.719Z,27.22
2023-12-23T04:07:07.769Z,27.21
2023-12-23T04:08:07.771Z,27.21
2023-12-23T04:09:07.739Z,27.27
2023-12-23T04:10:07.732Z,27.22
2023-12-23T04:11:07.756Z,27.22
2023-12-23T04:12:07.732Z,27.24
2023-12-23T04:13:07.741Z,27.21
2023-12-23T04:14:07.773Z,27.25
2023-12-23T04:15:07.763Z,27.25
2023-12-23T04:16:07.762Z,27.31
2023-12-23T04:17:07.794Z,27.31
2023-12-23T04:18:07.834Z,27.27
2023-12-23T04:19:07.870Z,27.21
2023-12-23T04:20:07.812Z,27.22
2023-12-23T04:21:07.755Z,27.18
2023-12-23T04:22:07.778Z,27.22
2023-12-23T04:23:07.818Z,27.22
2023-12-23T04:24:07.774Z,27.19
2023-12-23T04:25:07.763Z,27.19
2023-12-23T04:26:07.797Z,27.27
2023-12-23T04:27:07.765Z,27.18
2023-12-23T04:28:07.753Z,27.24
2023-12-23T04:29:07.807Z,27.24
2023-12-23T04:30:07.758Z,27.18
2023-12-23T04:31:07.841Z,27.24
2023-12-23T04:32:07.807Z,27.25
2023-12-23T04:33:07.830Z,27.18
2023-12-23T04:34:07.807Z,27.21
2023-12-23T04:35:07.799Z,27.19
2023-12-23T04:36:07.772Z,27.21
2023-12-23T04:37:07.776Z,27.21
2023-12-23T04:38:07.853Z,27.24
2023-12-23T04:39:07.785Z,27.28
2023-12-23T04:40:07.774Z,27.19
2023-12-23T04:41:07.795Z,27.21
2023-12-23T04:42:07.781Z,27.25
2023-12-23T04:43:07.790Z,27.19
2023-12-23T04:44:07.837Z,27.24
2023-12-23T04:45:07.790Z,27.25
2023-12-23T04:46:07.785Z,27.24
2023-12-23T04:47:07.833Z,27.19
2023-12-23T04:48:07.924Z,27.28
2023-12-23T04:49:07.841Z,27.22
2023-12-23T04:50:07.833Z,27.19
2023-12-23T04:51:07.803Z,27.24
2023-12-23T04:52:07.802Z,27.25
2023-12-23T04:53:07.845Z,27.22
2023-12-23T04:54:07.790Z,27.21
2023-12-23T04:55:07.804Z,27.19
2023-12-23T04:56:07.801Z,27.25
2023-12-23T04:57:07.818Z,27.21
2023-12-23T04:58:07.799Z,27.19
2023-12-23T04:59:07.834Z,27.25
2023-12-23T05:00:07.806Z,27.18
2023-12-23T05:01:07.859Z,27.21
2023-12-23T05:02:07.864Z,27.25
2023-12-23T05:03:07.855Z,27.22
2023-12-23T05:04:07.831Z,27.21
2023-12-23T05:05:07.908Z,27.21
2023-12-23T05:06:07.850Z,27.24
2023-12-23T05:07:07.822Z,27.24
2023-12-23T05:08:07.826Z,27.22
2023-12-23T05:09:07.843Z,27.18
2023-12-23T05:10:07.855Z,27.24
2023-12-23T05:11:07.859Z,27.29
2023-12-23T05:12:07.818Z,27.21
2023-12-23T05:13:07.830Z,27.25
2023-12-23T05:14:07.832Z,27.31
2023-12-23T05:15:07.833Z,27.21
2023-12-23T05:16:07.826Z,27.24
2023-12-23T05:17:07.870Z,27.25
2023-12-23T05:18:07.887Z,27.24
2023-12-23T05:19:07.928Z,27.21
2023-12-23T05:20:07.886Z,27.31
2023-12-23T05:21:07.857Z,27.24
2023-12-23T05:22:07.836Z,27.24
2023-12-23T05:23:07.886Z,27.19
2023-12-23T05:24:07.837Z,27.19
2023-12-23T05:25:07.846Z,27.21
2023-12-23T05:26:07.920Z,27.21
2023-12-23T05:27:07.857Z,27.27
2023-12-23T05:28:07.869Z,27.29
2023-12-23T05:29:07.894Z,27.19
2023-12-23T05:30:07.872Z,27.17
2023-12-23T05:31:07.886Z,27.28
2023-12-23T05:32:07.962Z,27.21
2023-12-23T05:33:07.955Z,27.25
2023-12-23T05:34:07.915Z,27.27
2023-12-23T05:35:07.907Z,27.28
2023-12-23T05:36:07.912Z,27.28
2023-12-23T05:37:07.877Z,27.24
2023-12-23T05:38:07.906Z,27.24
2023-12-23T05:39:07.890Z,27.19
2023-12-23T05:40:07.863Z,27.19
2023-12-23T05:41:07.919Z,27.25
2023-12-23T05:42:07.869Z,27.24
2023-12-23T05:43:07.884Z,27.21
2023-12-23T05:44:08.075Z,27.24
2023-12-23T05:45:07.882Z,27.19
2023-12-23T05:46:07.883Z,27.18
2023-12-23T05:47:08.017Z,27.25
2023-12-23T05:48:08.034Z,27.28
2023-12-23T05:49:07.928Z,27.25
2023-12-23T05:50:07.918Z,27.21
2023-12-23T05:51:07.894Z,27.17
2023-12-23T05:52:07.914Z,27.28
2023-12-23T05:53:07.909Z,27.21
2023-12-23T05:54:07.890Z,27.21
2023-12-23T05:55:08.041Z,27.21
2023-12-23T05:56:07.957Z,27.22
2023-12-23T05:57:07.909Z,27.19
2023-12-23T05:58:07.893Z,27.28
2023-12-23T05:59:07.942Z,27.19
2023-12-23T06:00:10.423Z,27.18
2023-12-23T06:01:08.064Z,27.28
2023-12-23T06:02:07.983Z,27.21
2023-12-23T06:03:07.947Z,27.24
2023-12-23T06:04:07.901Z,27.27
2023-12-23T06:05:07.948Z,27.22
2023-12-23T06:06:07.941Z,27.22
2023-12-23T06:07:07.920Z,27.21
2023-12-23T06:08:07.985Z,27.22
2023-12-23T06:09:07.930Z,27.25
2023-12-23T06:10:07.940Z,27.21
2023-12-23T06:11:08.091Z,27.24
2023-12-23T06:12:07.933Z,27.22
2023-12-23T06:13:07.930Z,27.24
2023-12-23T06:14:07.937Z,27.27
2023-12-23T06:15:07.930Z,27.27
2023-12-23T06:16:07.929Z,27.21
2023-12-23T06:17:07.964Z,27.17
2023-12-23T06:18:08.018Z,27.29
2023-12-23T06:19:07.962Z,27.22
2023-12-23T06:20:07.961Z,27.32
2023-12-23T06:21:07.947Z,27.31
2023-12-23T06:22:07.942Z,27.27
2023-12-23T06:23:08.031Z,27.28
2023-12-23T06:24:07.960Z,27.21
2023-12-23T06:25:08.041Z,27.25
2023-12-23T06:26:07.975Z,27.24
2023-12-23T06:27:07.968Z,27.28
2023-12-23T06:28:07.942Z,27.18
2023-12-23T06:29:08.005Z,27.24
2023-12-23T06:30:07.993Z,27.21
2023-12-23T06:31:07.964Z,27.25
2023-12-23T06:32:08.037Z,27.24
2023-12-23T06:33:08.028Z,27.21
2023-12-23T06:34:08.250Z,27.24
2023-12-23T06:35:08.055Z,27.21
2023-12-23T06:36:07.966Z,27.21
2023-12-23T06:37:07.969Z,27.22
2023-12-23T06:38:08.003Z,27.25
2023-12-23T06:39:07.980Z,27.29
2023-12-23T06:40:08.030Z,27.27
2023-12-23T06:41:08.038Z,27.25
2023-12-23T06:42:07.969Z,27.19
2023-12-23T06:43:43.432Z,27.24
2023-12-23T06:44:08.005Z,27.19
2023-12-23T06:45:07.986Z,27.21
2023-12-23T06:46:07.983Z,27.31
2023-12-23T06:47:08.019Z,27.24
2023-12-23T06:48:08.049Z,27.19
2023-12-23T06:49:08.144Z,27.29
2023-12-23T06:50:08.210Z,27.21
2023-12-23T06:51:07.999Z,27.19
2023-12-23T06:52:07.986Z,27.19
2023-12-23T06:53:08.029Z,27.27
2023-12-23T06:54:08.243Z,27.18
2023-12-23T06:55:08.003Z,27.21
2023-12-23T06:56:08.277Z,27.19
2023-12-23T06:57:08.016Z,27.19
2023-12-23T06:58:07.997Z,27.21
2023-12-23T06:59:08.031Z,27.28
2023-12-23T07:00:08.041Z,27.19
2023-12-23T07:01:08.034Z,27.17
2023-12-23T07:02:08.041Z,27.22
2023-12-23T07:03:08.016Z,27.21
2023-12-23T07:04:08.051Z,27.22
2023-12-23T07:05:08.068Z,27.25
2023-12-23T07:06:08.031Z,27.19
2023-12-23T07:07:08.013Z,27.21
2023-12-23T07:08:08.020Z,27.25
2023-12-23T07:09:09.043Z,27.25
2023-12-23T07:10:08.273Z,27.21
2023-12-23T07:11:08.049Z,27.22
2023-12-23T07:12:08.046Z,27.19
2023-12-23T07:13:08.023Z,27.25
2023-12-23T07:14:08.053Z,27.27
2023-12-23T07:15:08.167Z,27.19
2023-12-23T07:16:08.019Z,27.19
2023-12-23T07:17:08.059Z,27.21
2023-12-23T07:18:08.065Z,27.28
2023-12-23T07:19:08.058Z,27.17
2023-12-23T07:20:08.056Z,27.25
2023-12-23T07:21:08.037Z,27.27
2023-12-23T07:22:08.040Z,27.17
2023-12-23T07:23:08.088Z,27.21
2023-12-23T07:24:08.036Z,27.25
2023-12-23T07:25:08.085Z,27.25
2023-12-23T07:26:08.058Z,27.24
2023-12-23T07:27:08.048Z,27.27
2023-12-23T07:28:08.066Z,27.22
2023-12-23T07:29:08.121Z,27.19
2023-12-23T07:30:08.071Z,27.19
2023-12-23T07:31:08.051Z,27.21
2023-12-23T07:32:08.064Z,27.19
2023-12-23T07:33:08.219Z,27.25
2023-12-23T07:34:08.205Z,27.19
2023-12-23T07:35:08.158Z,27.22
2023-12-23T07:36:08.055Z,27.17
2023-12-23T07:37:08.065Z,27.21
2023-12-23T07:38:08.069Z,27.29
2023-12-23T07:39:08.063Z,27.25
2023-12-23T07:40:08.058Z,27.21
2023-12-23T07:41:08.117Z,27.19
2023-12-23T07:42:08.058Z,27.22
2023-12-23T07:43:08.082Z,27.22
2023-12-23T07:44:08.143Z,27.24
2023-12-23T07:45:08.084Z,27.25
2023-12-23T07:46:08.086Z,27.18
2023-12-23T07:47:08.085Z,27.22
2023-12-23T07:48:08.228Z,27.28
2023-12-23T07:49:08.121Z,27.22
2023-12-23T07:50:08.160Z,27.19
2023-12-23T07:51:08.098Z,27.24
2023-12-23T07:52:08.090Z,27.18
2023-12-23T07:53:08.214Z,27.22
2023-12-23T07:54:08.157Z,27.22
2023-12-23T07:55:08.106Z,27.21
2023-12-23T07:56:08.129Z,27.25
2023-12-23T07:57:08.100Z,27.24
2023-12-23T07:58:08.108Z,27.22
2023-12-23T07:59:08.175Z,27.24
2023-12-23T08:00:08.117Z,27.19
2023-12-23T08:01:08.185Z,27.14
2023-12-23T08:02:08.153Z,27.27
2023-12-23T08:03:08.114Z,27.28
2023-12-23T08:04:08.164Z,27.21
2023-12-23T08:05:09.798Z,27.24
2023-12-23T08:06:08.277Z,27.24
2023-12-23T08:07:08.128Z,27.25
2023-12-23T08:08:08.185Z,27.18
2023-12-23T08:09:08.120Z,27.27
2023-12-23T08:10:08.112Z,27.22
2023-12-23T08:11:08.134Z,27.28
2023-12-23T08:12:08.124Z,27.19
2023-12-23T08:13:08.129Z,27.21
2023-12-23T08:14:08.186Z,27.21
2023-12-23T08:15:08.115Z,27.21
2023-12-23T08:16:08.153Z,27.19
2023-12-23T08:17:08.157Z,27.24
2023-12-23T08:18:08.195Z,27.24
2023-12-23T08:19:08.145Z,27.24
2023-12-23T08:20:08.175Z,27.24
2023-12-23T08:21:08.130Z,27.18
2023-12-23T08:22:08.142Z,27.17
2023-12-23T08:23:08.195Z,27.24
2023-12-23T08:24:08.140Z,27.25
2023-12-23T08:25:08.133Z,27.24
2023-12-23T08:26:08.173Z,27.31
2023-12-23T08:27:08.145Z,27.25
2023-12-23T08:28:08.152Z,27.22
2023-12-23T08:29:08.146Z,27.21
2023-12-23T08:30:08.187Z,27.27
2023-12-23T08:31:08.165Z,27.28
2023-12-23T08:32:08.209Z,27.21
2023-12-23T08:33:08.225Z,27.24
2023-12-23T08:34:08.284Z,27.27
2023-12-23T08:35:08.188Z,27.24
2023-12-23T08:36:08.179Z,27.22
2023-12-23T08:37:08.170Z,27.28
2023-12-23T08:38:08.197Z,27.27
2023-12-23T08:39:08.167Z,27.21
2023-12-23T08:40:08.169Z,27.21
2023-12-23T08:41:08.186Z,27.21
2023-12-23T08:42:08.174Z,27.21
2023-12-23T08:43:08.172Z,27.25
2023-12-23T08:44:08.209Z,27.25
2023-12-23T08:45:08.163Z,27.21
2023-12-23T08:46:08.186Z,27.25
2023-12-23T08:47:08.215Z,27.27
2023-12-23T08:48:08.256Z,27.27
2023-12-23T08:49:08.252Z,27.22
2023-12-23T08:50:08.223Z,27.27
2023-12-23T08:51:08.171Z,27.27
2023-12-23T08:52:08.193Z,27.24
2023-12-23T08:53:08.201Z,27.21
2023-12-23T08:54:08.186Z,27.25
2023-12-23T08:55:08.180Z,27.21
2023-12-23T08:56:08.259Z,27.24
2023-12-23T08:57:08.181Z,27.18
2023-12-23T08:58:08.202Z,27.22
2023-12-23T08:59:08.226Z,27.25
2023-12-23T09:00:08.204Z,27.28
2023-12-23T09:01:08.224Z,27.19
2023-12-23T09:02:08.232Z,27.21
2023-12-23T09:03:08.258Z,27.25
2023-12-23T09:04:08.227Z,27.18
2023-12-23T09:05:08.403Z,27.25
2023-12-23T09:06:08.246Z,27.31
2023-12-23T09:07:08.197Z,27.19
2023-12-23T09:08:08.301Z,27.22
2023-12-23T09:09:08.480Z,27.22
2023-12-23T09:10:08.206Z,27.19
2023-12-23T09:11:08.247Z,27.19
2023-12-23T09:12:08.214Z,27.24
2023-12-23T09:13:08.207Z,27.22
2023-12-23T09:14:08.267Z,27.28
2023-12-23T09:15:08.209Z,27.22
2023-12-23T09:16:08.217Z,27.25
2023-12-23T09:17:08.274Z,27.27
2023-12-23T09:18:08.319Z,27.19
2023-12-23T09:19:08.393Z,27.25
2023-12-23T09:20:08.283Z,27.24
2023-12-23T09:21:08.231Z,27.19
2023-12-23T09:22:08.234Z,27.18
2023-12-23T09:23:08.280Z,27.21
2023-12-23T09:24:08.238Z,27.17
2023-12-23T09:25:08.230Z,27.22
2023-12-23T09:26:08.275Z,27.25
2023-12-23T09:27:08.230Z,27.21
2023-12-23T09:28:08.248Z,27.19
2023-12-23T09:29:08.288Z,27.19
2023-12-23T09:30:08.279Z,27.22
2023-12-23T09:31:08.253Z,27.27
2023-12-23T09:32:08.303Z,27.19
2023-12-23T09:33:08.275Z,27.19
2023-12-23T09:34:08.363Z,27.21
2023-12-23T09:35:08.291Z,27.21
2023-12-23T09:36:08.298Z,27.19
2023-12-23T09:37:08.260Z,27.24
2023-12-23T09:38:08.338Z,27.28
2023-12-23T09:39:08.251Z,27.29
2023-12-23T09:40:08.259Z,27.21
2023-12-23T09:41:08.301Z,27.24
2023-12-23T09:42:08.270Z,27.18
2023-12-23T09:43:08.254Z,27.21
2023-12-23T09:44:08.310Z,27.27
2023-12-23T09:45:08.259Z,27.29
2023-12-23T09:46:08.297Z,27.24
2023-12-23T09:47:08.339Z,27.22
2023-12-23T09:48:08.462Z,27.18
2023-12-23T09:49:08.376Z,27.25
2023-12-23T09:50:08.308Z,27.22
2023-12-23T09:51:08.268Z,27.24
2023-12-23T09:52:08.317Z,27.22
2023-12-23T09:53:08.341Z,27.24
2023-12-23T09:54:08.426Z,27.22
2023-12-23T09:55:08.289Z,27.22
2023-12-23T09:56:08.385Z,27.18
2023-12-23T09:57:08.287Z,27.19
2023-12-23T09:58:08.304Z,27.24
2023-12-23T09:59:08.314Z,27.24
2023-12-23T10:00:08.294Z,27.22
2023-12-23T10:01:08.372Z,27.21
2023-12-23T10:02:08.316Z,27.22
2023-12-23T10:03:08.337Z,27.19
2023-12-23T10:04:08.302Z,27.24
2023-12-23T10:05:08.437Z,27.19
2023-12-23T10:06:08.374Z,27.19
2023-12-23T10:07:08.293Z,27.28
2023-12-23T10:08:08.395Z,27.24
2023-12-23T10:09:08.301Z,27.19
2023-12-23T10:10:08.335Z,27.21
2023-12-23T10:11:08.302Z,27.27
2023-12-23T10:12:08.318Z,27.24
2023-12-23T10:13:08.303Z,27.21
2023-12-23T10:14:08.365Z,27.24
2023-12-23T10:15:08.311Z,27.25
2023-12-23T10:16:08.323Z,27.19
2023-12-23T10:17:08.356Z,27.22
2023-12-23T10:18:08.367Z,27.19
2023-12-23T10:19:08.400Z,27.19
2023-12-23T10:20:08.377Z,27.25
2023-12-23T10:21:08.333Z,27.25
2023-12-23T10:22:08.346Z,27.19
2023-12-23T10:23:08.370Z,27.22
2023-12-23T10:24:08.354Z,27.21
2023-12-23T10:25:08.330Z,27.18
2023-12-23T10:26:08.392Z,27.28
2023-12-23T10:27:08.322Z,27.19
2023-12-23T10:28:08.339Z,27.21
2023-12-23T10:29:08.411Z,27.19
2023-12-23T10:30:08.378Z,27.18
2023-12-23T10:31:08.330Z,27.22
2023-12-23T10:32:08.422Z,27.28
2023-12-23T10:33:08.495Z,27.25
2023-12-23T10:34:08.384Z,27.25
2023-12-23T10:35:08.397Z,27.17
2023-12-23T10:36:08.349Z,27.21
2023-12-23T10:37:08.339Z,27.19
2023-12-23T10:38:08.382Z,27.21
2023-12-23T10:39:08.356Z,27.21
2023-12-23T10:40:08.377Z,27.21
2023-12-23T10:41:08.416Z,27.21
2023-12-23T10:42:08.358Z,27.19
2023-12-23T10:43:08.345Z,27.21
2023-12-23T10:44:08.429Z,27.29
2023-12-23T10:45:08.354Z,27.17
2023-12-23T10:46:08.387Z,27.21
2023-12-23T10:47:08.405Z,27.29
2023-12-23T10:48:08.494Z,27.19
2023-12-23T10:49:08.490Z,27.24
2023-12-23T10:50:08.415Z,27.27
2023-12-23T10:51:08.358Z,27.27
2023-12-23T10:52:08.372Z,27.28
2023-12-23T10:53:08.394Z,27.18
2023-12-23T10:54:08.376Z,27.24
2023-12-23T10:55:08.360Z,27.21
2023-12-23T10:56:08.412Z,27.21
2023-12-23T10:57:08.367Z,27.24
2023-12-23T10:58:08.380Z,27.22
2023-12-23T10:59:08.391Z,27.25
2023-12-23T11:00:08.383Z,27.18
2023-12-23T11:01:08.400Z,27.21
2023-12-23T11:02:08.455Z,27.21
2023-12-23T11:03:08.406Z,27.28
2023-12-23T11:04:08.391Z,27.18
2023-12-23T11:05:08.422Z,27.22
2023-12-23T11:06:08.467Z,27.21
2023-12-23T11:07:08.387Z,27.27
2023-12-23T11:08:16.574Z,27.21
2023-12-23T11:09:08.390Z,27.25
2023-12-23T11:10:08.402Z,27.17
2023-12-23T11:11:08.426Z,27.19
2023-12-23T11:12:08.428Z,27.22
2023-12-23T11:13:08.393Z,27.22
2023-12-23T11:14:08.438Z,27.22
2023-12-23T11:15:08.396Z,27.27
2023-12-23T11:16:08.411Z,27.22
2023-12-23T11:17:08.406Z,27.22
2023-12-23T11:18:09.234Z,27.22
2023-12-23T11:19:08.427Z,27.24
2023-12-23T11:20:08.426Z,27.19
2023-12-23T11:21:08.427Z,27.25
2023-12-23T11:22:08.435Z,27.24
2023-12-23T11:23:08.417Z,27.24
2023-12-23T11:24:08.424Z,27.24
2023-12-23T11:25:08.413Z,27.19
2023-12-23T11:26:08.458Z,27.25
2023-12-23T11:27:08.413Z,27.21
2023-12-23T11:28:08.488Z,27.24
2023-12-23T11:29:08.471Z,27.25
2023-12-23T11:30:08.458Z,27.24
2023-12-23T11:31:08.458Z,27.29
2023-12-23T11:32:08.488Z,27.25
2023-12-23T11:33:08.509Z,27.28
2023-12-23T11:34:08.543Z,27.25
2023-12-23T11:35:08.478Z,27.28
2023-12-23T11:36:08.441Z,27.22
2023-12-23T11:37:08.434Z,27.24
2023-12-23T11:38:08.507Z,27.22
2023-12-23T11:39:08.434Z,27.22
2023-12-23T11:40:08.453Z,27.25
2023-12-23T11:41:08.460Z,27.22
2023-12-23T11:42:08.477Z,27.24
2023-12-23T11:43:08.440Z,27.19
2023-12-23T11:44:08.505Z,27.24
2023-12-23T11:45:08.444Z,27.18
2023-12-23T11:46:08.466Z,27.25
2023-12-23T11:47:08.501Z,27.21
2023-12-23T11:48:08.489Z,27.18
2023-12-23T11:49:08.459Z,27.17
2023-12-23T11:50:08.505Z,27.21
2023-12-23T11:51:08.449Z,27.21
2023-12-23T11:52:08.466Z,27.21
2023-12-23T11:53:08.485Z,27.19
2023-12-23T11:54:08.529Z,27.14
2023-12-23T11:55:08.472Z,27.25
2023-12-23T11:56:08.593Z,27.21
2023-12-23T11:57:08.465Z,27.22
2023-12-23T11:58:08.477Z,27.18
2023-12-23T11:59:08.584Z,27.21
2023-12-23T12:00:08.505Z,27.18
2023-12-23T12:01:08.536Z,27.21
2023-12-23T12:02:08.501Z,27.24
2023-12-23T12:03:08.482Z,27.24
2023-12-23T12:04:08.548Z,27.22
2023-12-23T12:05:08.568Z,27.24
2023-12-23T12:06:08.696Z,27.22
2023-12-23T12:07:08.478Z,27.17
2023-12-23T12:08:08.513Z,27.22
2023-12-23T12:09:08.479Z,27.17
2023-12-23T12:10:08.497Z,27.22
2023-12-23T12:11:08.512Z,27.22
2023-12-23T12:12:08.498Z,27.18
2023-12-23T12:13:08.491Z,27.21
2023-12-23T12:14:08.578Z,27.19
2023-12-23T12:15:08.500Z,27.22
2023-12-23T12:16:08.595Z,27.14
2023-12-23T12:17:09.975Z,27.22
2023-12-23T12:18:08.606Z,27.27
2023-12-23T12:19:08.683Z,27.25
2023-12-23T12:20:08.561Z,27.24
2023-12-23T12:21:08.501Z,27.22
2023-12-23T12:22:08.516Z,27.19
2023-12-23T12:23:08.539Z,27.18
2023-12-23T12:24:08.521Z,27.24
2023-12-23T12:25:08.517Z,27.18
2023-12-23T12:26:08.654Z,27.19
2023-12-23T12:27:08.522Z,27.24
2023-12-23T12:28:08.513Z,27.25
2023-12-23T12:29:08.565Z,27.27
2023-12-23T12:30:08.553Z,27.25
2023-12-23T12:31:08.539Z,27.17
2023-12-23T12:32:08.616Z,27.18
2023-12-23T12:33:08.648Z,27.19
2023-12-23T12:34:08.577Z,27.27
2023-12-23T12:35:08.576Z,27.21
2023-12-23T12:36:08.577Z,27.22
2023-12-23T12:37:08.547Z,27.22
2023-12-23T12:38:14.161Z,27.19
2023-12-23T12:39:08.544Z,27.25
2023-12-23T12:40:08.538Z,27.14
2023-12-23T12:41:08.601Z,27.21
2023-12-23T12:42:08.547Z,27.24
2023-12-23T12:43:08.556Z,27.19
2023-12-23T12:44:08.557Z,27.21
2023-12-23T12:45:08.556Z,27.25
2023-12-23T12:46:08.559Z,27.24
2023-12-23T12:47:08.607Z,27.17
2023-12-23T12:48:08.683Z,27.22
2023-12-23T12:49:08.634Z,27.22
2023-12-23T12:50:08.664Z,27.24
2023-12-23T12:51:08.571Z,27.18
2023-12-23T12:52:08.572Z,27.22